Time;durP1;ratioP1;P1;durP2;ratioP2;P2;SDS_P1;SDS_P2;PMS_P1;PMS_P2;Temp;Humidity;BMP_temperature;BMP_pressure;BME280_temperature;BME280_humidity;BME280_pressure;Samples;Min_cycle;Max_cycle;Signal;HPM_P1;HPM_P2
2021/08/09 00:01:57;;;;;;;5.47;3.25;;;;;;;13.30;96.27;98201.81;5027752;28;20034;-59
2021/08/09 00:04:22;;;;;;;7.57;3.10;;;;;;;13.04;97.50;98204.84;5026263;28;20033;-59
2021/08/09 00:06:47;;;;;;;6.32;3.08;;;;;;;13.01;98.81;98204.97;5028431;28;20052;-59
2021/08/09 00:09:13;;;;;;;5.40;2.80;;;;;;;13.38;96.64;98198.84;5027635;28;20074;-61
2021/08/09 00:11:38;;;;;;;6.40;3.63;;;;;;;13.29;96.18;98196.66;5027825;28;20448;-61
2021/08/09 00:14:03;;;;;;;5.25;3.40;;;;;;;13.27;95.33;98201.97;5026338;28;20598;-59
2021/08/09 00:16:29;;;;;;;6.60;3.00;;;;;;;13.37;95.89;98201.53;5028897;28;20646;-59
2021/08/09 00:18:54;;;;;;;10.38;3.20;;;;;;;13.08;96.97;98195.91;5027015;28;20026;-59
2021/08/09 00:21:21;;;;;;;6.03;3.25;;;;;;;12.88;98.96;98205.56;5023664;28;20509;-58
2021/08/09 00:23:47;;;;;;;5.57;3.25;;;;;;;12.99;98.27;98206.81;5026944;28;20083;-60
2021/08/09 00:26:13;;;;;;;8.43;3.17;;;;;;;12.82;99.03;98205.84;5024567;28;20025;-61
2021/08/09 00:28:38;;;;;;;5.47;3.03;;;;;;;12.85;98.71;98202.25;5025571;28;20349;-58
2021/08/09 00:31:03;;;;;;;6.35;3.22;;;;;;;12.82;98.72;98200.59;5025822;28;20041;-60
2021/08/09 00:33:29;;;;;;;7.95;3.03;;;;;;;13.01;97.40;98199.72;5027394;28;20033;-59
2021/08/09 00:35:55;;;;;;;4.75;2.90;;;;;;;12.76;99.25;98195.66;5026283;28;20529;-60
2021/08/09 00:38:20;;;;;;;5.53;3.05;;;;;;;12.79;99.06;98195.53;5025647;28;20115;-59
2021/08/09 00:40:46;;;;;;;7.18;3.10;;;;;;;12.87;99.32;98197.78;5026563;28;20523;-61
2021/08/09 00:43:11;;;;;;;5.82;2.53;;;;;;;13.08;97.95;98193.28;5025670;28;20136;-58
2021/08/09 00:45:37;;;;;;;6.72;3.30;;;;;;;12.95;97.79;98198.25;5024257;28;20490;-60
2021/08/09 00:48:03;;;;;;;5.40;3.00;;;;;;;12.81;98.54;98193.69;5025205;28;20053;-59
2021/08/09 00:50:29;;;;;;;4.60;2.90;;;;;;;13.23;96.82;98194.31;5026484;28;20040;-59
2021/08/09 00:52:56;;;;;;;7.63;3.05;;;;;;;12.91;98.01;98205.41;5027752;28;20048;-60
2021/08/09 00:55:21;;;;;;;6.10;3.20;;;;;;;13.04;96.51;98199.59;5026259;28;20061;-59
2021/08/09 00:57:49;;;;;;;7.25;3.08;;;;;;;12.85;98.50;98197.84;5025667;28;20109;-60
2021/08/09 01:00:16;;;;;;;5.97;3.20;;;;;;;12.91;98.72;98202.78;5025452;28;20678;-63
2021/08/09 01:02:43;;;;;;;7.68;3.28;;;;;;;12.87;98.06;98198.63;5027343;28;20025;-59
2021/08/09 01:05:10;;;;;;;7.03;3.17;;;;;;;12.86;97.22;98196.91;5025592;28;20032;-59
2021/08/09 01:07:54;;;;;;;6.20;2.40;;;;;;;13.04;97.67;98200.44;5025586;28;20017;-59
2021/08/09 01:10:28;;;;;;;7.18;3.25;;;;;;;13.03;96.19;98204.00;5026184;28;20036;-59
2021/08/09 01:13:20;;;;;;;7.38;2.60;;;;;;;13.61;95.25;98195.06;5025872;28;20036;-60
2021/08/09 01:15:48;;;;;;;;;;;;;;;13.66;95.11;98197.47;5027435;28;20499;-59
2021/08/09 01:18:15;;;;;;;5.93;3.10;;;;;;;13.16;95.58;98199.00;5023948;28;19959;-59
2021/08/09 01:20:53;;;;;;;7.57;2.90;;;;;;;13.19;95.84;98191.00;5022089;28;20080;-60
2021/08/09 01:23:40;;;;;;;7.85;3.10;;;;;;;12.78;97.88;98193.81;5024677;28;20064;-59
2021/08/09 01:26:31;;;;;;;6.78;2.95;;;;;;;13.04;97.56;98189.13;5023884;28;20102;-58
2021/08/09 01:28:59;;;;;;;6.15;2.90;;;;;;;13.05;95.98;98191.66;5025921;28;20024;-59
2021/08/09 01:31:29;;;;;;;10.07;3.47;;;;;;;12.88;96.67;98196.84;5025174;28;20036;-60
2021/08/09 01:33:57;;;;;;;7.75;3.03;;;;;;;12.89;98.04;98193.31;5030448;28;20017;-60
2021/08/09 01:36:24;;;;;;;6.30;3.58;;;;;;;12.78;98.73;98193.81;5029465;28;20052;-60
2021/08/09 01:38:51;;;;;;;4.82;2.85;;;;;;;12.82;97.89;98184.91;5028675;28;20029;-59
2021/08/09 01:41:17;;;;;;;6.15;3.08;;;;;;;12.95;96.68;98179.09;5029361;28;20142;-60
2021/08/09 01:43:44;;;;;;;7.35;3.30;;;;;;;12.79;97.57;98185.06;5030872;28;20298;-59
2021/08/09 01:46:12;;;;;;;6.30;2.95;;;;;;;12.78;98.10;98188.59;5030377;28;20615;-58
2021/08/09 01:48:43;;;;;;;10.10;3.50;;;;;;;12.86;98.21;98181.19;5028143;28;20041;-59
2021/08/09 01:51:08;;;;;;;8.85;3.50;;;;;;;12.67;98.17;98185.63;5027629;28;20930;-61
2021/08/09 01:53:34;;;;;;;8.20;3.08;;;;;;;12.90;97.76;98177.53;5031014;28;20544;-59
2021/08/09 01:55:59;;;;;;;7.50;3.00;;;;;;;12.78;99.07;98174.66;5027872;28;20052;-60
2021/08/09 01:58:25;;;;;;;6.97;3.33;;;;;;;13.00;96.52;98171.88;5031622;28;20398;-59
2021/08/09 02:00:50;;;;;;;6.13;2.88;;;;;;;12.93;97.27;98182.63;5026921;28;20939;-59
2021/08/09 02:03:16;;;;;;;5.00;3.35;;;;;;;12.69;99.11;98184.63;5029453;28;20024;-59
2021/08/09 02:05:41;;;;;;;5.43;3.10;;;;;;;13.00;96.32;98177.94;5028378;28;20063;-59
2021/08/09 02:08:11;;;;;;;8.70;3.30;;;;;;;12.88;96.64;98189.88;5029844;28;20031;-60
2021/08/09 02:10:36;;;;;;;4.15;3.03;;;;;;;12.93;96.14;98182.63;5025694;28;20030;-60
2021/08/09 02:13:17;;;;;;;4.60;3.10;;;;;;;12.76;97.24;98182.56;5027078;28;20079;-60
2021/08/09 02:15:54;;;;;;;3.55;2.63;;;;;;;12.76;97.87;98179.13;5027049;28;20103;-59
2021/08/09 02:18:47;;;;;;;8.77;3.10;;;;;;;12.60;97.95;98179.81;5029049;28;20028;-60
2021/08/09 02:21:22;;;;;;;8.18;2.80;;;;;;;12.88;96.58;98181.13;5027863;28;20114;-59
2021/08/09 02:23:53;;;;;;;4.45;2.97;;;;;;;12.71;97.57;98184.56;5029794;28;20103;-59
2021/08/09 02:26:51;;;;;;;8.70;3.15;;;;;;;12.82;97.28;98179.66;5028096;28;20083;-59
2021/08/09 02:29:24;;;;;;;6.88;3.00;;;;;;;12.98;95.46;98179.78;5029696;28;20040;-59
2021/08/09 02:31:53;;;;;;;5.03;3.28;;;;;;;12.83;96.80;98186.59;5026808;28;20040;-59
2021/08/09 02:34:21;;;;;;;6.50;3.13;;;;;;;12.81;97.10;98182.34;5028134;28;20121;-60
2021/08/09 02:36:47;;;;;;;5.90;3.05;;;;;;;12.58;98.69;98175.59;5025795;28;20140;-60
2021/08/09 02:39:16;;;;;;;5.78;2.78;;;;;;;12.72;98.19;98181.03;5028964;28;20074;-60
2021/08/09 02:41:42;;;;;;;6.40;3.35;;;;;;;12.62;98.87;98188.44;5027454;28;20041;-59
2021/08/09 02:44:08;;;;;;;6.18;3.08;;;;;;;12.77;96.23;98197.34;5028278;28;20392;-59
2021/08/09 02:46:34;;;;;;;5.40;3.28;;;;;;;12.60;97.14;98194.69;5029956;28;20523;-59
2021/08/09 02:49:01;;;;;;;7.03;3.47;;;;;;;12.43;98.63;98188.44;5030030;28;20107;-59
2021/08/09 02:51:28;;;;;;;5.43;3.35;;;;;;;12.49;98.32;98196.00;5025916;28;20133;-59
2021/08/09 02:53:54;;;;;;;6.32;3.60;;;;;;;12.49;98.05;98198.63;5030056;28;20107;-60
2021/08/09 02:56:24;;;;;;;4.85;3.50;;;;;;;12.57;98.44;98200.03;5028081;28;20545;-58
2021/08/09 02:58:53;;;;;;;5.95;3.30;;;;;;;12.31;100.00;98196.84;5027205;28;20029;-59
2021/08/09 03:01:18;;;;;;;4.28;3.22;;;;;;;12.50;98.52;98195.09;5029018;28;20059;-61
2021/08/09 03:03:47;;;;;;;7.53;3.17;;;;;;;12.29;100.00;98206.53;5028435;28;20016;-60
2021/08/09 03:06:13;;;;;;;6.88;3.13;;;;;;;12.89;96.59;98202.00;5025414;28;20146;-60
2021/08/09 03:08:40;;;;;;;8.65;3.20;;;;;;;12.13;100.00;98208.97;5026265;28;20025;-59
2021/08/09 03:11:07;;;;;;;6.00;3.13;;;;;;;12.16;100.00;98201.00;5028553;28;20033;-59
2021/08/09 03:13:32;;;;;;;7.10;2.65;;;;;;;12.61;98.68;98201.59;5026605;28;20025;-59
2021/08/09 03:15:58;;;;;;;5.88;3.00;;;;;;;12.49;98.44;98206.47;5026617;28;20040;-59
2021/08/09 03:18:23;;;;;;;3.97;2.80;;;;;;;12.48;98.27;98207.41;5026387;28;20030;-59
2021/08/09 03:20:49;;;;;;;4.03;2.63;;;;;;;12.80;96.35;98207.69;5029803;28;20075;-59
2021/08/09 03:23:14;;;;;;;7.18;3.20;;;;;;;12.51;96.19;98207.25;5026037;28;20021;-59
2021/08/09 03:25:39;;;;;;;7.80;3.40;;;;;;;12.05;99.90;98214.53;5026811;28;20215;-59
2021/08/09 03:28:06;;;;;;;5.35;3.00;;;;;;;12.43;98.17;98208.53;5026023;28;20025;-58
2021/08/09 03:30:32;;;;;;;3.88;2.78;;;;;;;12.43;97.20;98209.38;5028699;28;20411;-60
2021/08/09 03:32:57;;;;;;;5.97;3.20;;;;;;;12.19;97.96;98215.72;5027475;28;20487;-59
2021/08/09 03:35:23;;;;;;;7.95;2.80;;;;;;;12.59;97.16;98216.50;5025924;28;20104;-59
2021/08/09 03:37:48;;;;;;;7.00;3.17;;;;;;;12.70;95.70;98220.34;5027690;28;20040;-59
2021/08/09 03:40:14;;;;;;;5.60;3.85;;;;;;;12.27;97.22;98224.06;5025648;28;20112;-59
2021/08/09 03:42:40;;;;;;;7.28;3.25;;;;;;;12.18;97.72;98224.47;5027755;28;20037;-60
2021/08/09 03:45:06;;;;;;;6.65;3.65;;;;;;;12.30;96.69;98227.38;5027256;28;21103;-59
2021/08/09 03:47:32;;;;;;;7.38;3.67;;;;;;;12.09;97.92;98226.56;5026795;28;20064;-59
2021/08/09 03:49:57;;;;;;;6.30;3.25;;;;;;;11.95;99.33;98234.16;5027908;28;20056;-59
2021/08/09 03:52:22;;;;;;;4.90;3.40;;;;;;;11.97;100.00;98229.72;5027546;28;20112;-61
2021/08/09 03:54:48;;;;;;;7.30;3.60;;;;;;;12.14;99.14;98235.03;5028193;28;20027;-60
2021/08/09 03:57:13;;;;;;;5.28;3.17;;;;;;;12.27;98.02;98239.75;5026174;28;20073;-58
2021/08/09 03:59:38;;;;;;;5.95;3.40;;;;;;;12.07;98.82;98243.22;5029064;28;20032;-58
2021/08/09 04:02:04;;;;;;;4.93;3.20;;;;;;;12.10;99.18;98241.34;5026031;28;20029;-61
2021/08/09 04:04:29;;;;;;;5.80;3.38;;;;;;;12.17;98.09;98244.53;5029103;28;20377;-60
2021/08/09 04:06:54;;;;;;;5.85;3.03;;;;;;;12.18;98.10;98250.63;5024549;28;20033;-59
2021/08/09 04:09:20;;;;;;;6.00;3.55;;;;;;;12.13;98.02;98250.78;5025669;28;20029;-58
2021/08/09 04:11:45;;;;;;;4.95;2.97;;;;;;;12.30;95.71;98252.69;5026814;28;20164;-60
2021/08/09 04:14:10;;;;;;;4.97;3.20;;;;;;;12.49;96.06;98250.09;5026412;28;20036;-59
2021/08/09 04:16:36;;;;;;;5.25;3.13;;;;;;;11.88;99.02;98253.59;5024467;28;20751;-59
2021/08/09 04:19:01;;;;;;;7.35;3.58;;;;;;;11.73;99.78;98249.88;5026527;28;20037;-60
2021/08/09 04:21:27;;;;;;;5.95;3.20;;;;;;;12.12;97.63;98246.50;5027128;28;20083;-59
2021/08/09 04:23:53;;;;;;;7.97;3.40;;;;;;;11.84;99.55;98249.41;5025604;28;20832;-59
2021/08/09 04:26:19;;;;;;;6.13;2.83;;;;;;;12.29;98.54;98251.00;5024691;28;20044;-59
2021/08/09 04:28:45;;;;;;;6.28;3.00;;;;;;;12.12;97.63;98252.56;5029230;28;20064;-59
2021/08/09 04:31:10;;;;;;;4.18;2.60;;;;;;;12.60;98.18;98252.25;5026600;28;20068;-59
2021/08/09 04:33:43;;;;;;;4.97;3.20;;;;;;;12.17;96.27;98247.16;5028362;28;20021;-59
2021/08/09 04:36:10;;;;;;;9.30;3.20;;;;;;;12.09;96.27;98250.13;5024814;28;20059;-59
2021/08/09 04:38:35;;;;;;;8.43;3.00;;;;;;;12.13;97.25;98246.44;5023048;28;20029;-60
2021/08/09 04:41:06;;;;;;;5.20;3.13;;;;;;;12.30;95.89;98255.31;5027820;28;20099;-59
2021/08/09 04:43:32;;;;;;;3.80;2.38;;;;;;;13.02;91.90;98248.56;5025905;28;20779;-59
2021/08/09 04:45:57;;;;;;;5.65;2.60;;;;;;;12.58;93.27;98243.63;5026116;28;20155;-59
2021/08/09 04:48:22;;;;;;;6.30;3.00;;;;;;;12.89;91.04;98253.53;5025015;28;20033;-59
2021/08/09 04:50:47;;;;;;;7.22;3.03;;;;;;;12.60;94.05;98258.31;5026708;28;20025;-60
2021/08/09 04:53:13;;;;;;;9.70;3.05;;;;;;;13.16;90.91;98254.03;5026146;28;20028;-59
2021/08/09 04:55:38;;;;;;;5.65;3.00;;;;;;;13.16;91.90;98247.91;5026341;28;20051;-59
2021/08/09 04:58:05;;;;;;;7.90;2.75;;;;;;;13.46;91.21;98243.00;5024941;28;20036;-59
2021/08/09 05:00:30;;;;;;;5.88;3.17;;;;;;;13.72;89.26;98252.19;5023482;28;20543;-58
2021/08/09 05:02:55;;;;;;;3.90;2.60;;;;;;;13.47;91.76;98248.19;5019887;28;20746;-59
2021/08/09 05:05:21;;;;;;;5.80;3.00;;;;;;;13.69;89.83;98240.09;5027020;28;20032;-60
2021/08/09 05:07:46;;;;;;;7.90;2.90;;;;;;;13.06;91.50;98235.25;5027864;28;20029;-60
2021/08/09 05:10:11;;;;;;;4.40;2.65;;;;;;;13.80;89.11;98241.31;5026467;28;21001;-59
2021/08/09 05:12:37;;;;;;;6.63;2.90;;;;;;;13.81;89.56;98238.63;5025437;28;20025;-60
2021/08/09 05:15:03;;;;;;;5.53;3.13;;;;;;;13.78;90.15;98237.94;5027511;28;20028;-59
2021/08/09 05:17:28;;;;;;;5.90;3.10;;;;;;;13.57;89.48;98230.22;5024481;28;20120;-60
2021/08/09 05:19:54;;;;;;;7.75;3.17;;;;;;;13.79;88.42;98231.78;5027884;28;20132;-61
2021/08/09 05:22:19;;;;;;;6.35;2.80;;;;;;;13.88;88.75;98233.94;5025244;28;20411;-58
2021/08/09 05:24:47;;;;;;;5.70;3.10;;;;;;;13.98;87.50;98229.06;5028419;28;20029;-59
2021/08/09 05:27:12;;;;;;;4.82;3.15;;;;;;;13.74;89.73;98236.41;5031035;28;20067;-62
2021/08/09 05:29:37;;;;;;;7.75;3.28;;;;;;;14.14;89.05;98234.38;5027485;28;20091;-59
2021/08/09 05:32:04;;;;;;;5.65;3.28;;;;;;;13.76;91.73;98242.41;5028001;28;20083;-58
2021/08/09 05:34:31;;;;;;;3.95;2.92;;;;;;;14.86;85.93;98240.22;5028659;28;20022;-59
2021/08/09 05:36:56;;;;;;;3.95;2.60;;;;;;;14.92;84.40;98237.25;5025953;28;20045;-58
2021/08/09 05:39:22;;;;;;;7.40;3.08;;;;;;;14.94;84.48;98243.28;5028959;28;20433;-59
2021/08/09 05:41:47;;;;;;;8.15;3.63;;;;;;;14.28;88.67;98239.75;5027354;28;20033;-60
2021/08/09 05:44:12;;;;;;;8.02;3.47;;;;;;;14.75;86.77;98241.66;5027412;28;20032;-60
2021/08/09 05:46:38;;;;;;;8.50;3.25;;;;;;;15.11;85.87;98247.59;5026359;28;20045;-59
2021/08/09 05:49:04;;;;;;;5.70;3.20;;;;;;;16.15;80.98;98246.88;5026645;28;20029;-59
2021/08/09 05:51:30;;;;;;;4.60;2.63;;;;;;;16.70;78.80;98247.09;5027981;28;20415;-59
2021/08/09 05:53:55;;;;;;;8.55;2.97;;;;;;;17.84;77.46;98240.63;5027706;28;20565;-59
2021/08/09 05:56:20;;;;;;;8.93;2.70;;;;;;;18.36;73.40;98246.00;5026046;28;20451;-60
2021/08/09 05:58:46;;;;;;;9.43;2.80;;;;;;;19.71;69.21;98241.63;5029220;28;20977;-59
2021/08/09 06:01:11;;;;;;;5.78;2.30;;;;;;;20.85;63.95;98238.25;5026418;28;20049;-61
2021/08/09 06:03:41;;;;;;;4.53;2.50;;;;;;;22.50;59.90;98233.53;5025812;28;20056;-59
2021/08/09 06:06:15;;;;;;;7.13;2.50;;;;;;;22.77;56.59;98234.75;5025742;28;21009;-61
2021/08/09 06:08:42;;;;;;;7.20;2.42;;;;;;;22.56;56.80;98231.31;5027140;28;20105;-60
2021/08/09 06:11:08;;;;;;;7.18;2.40;;;;;;;20.99;59.92;98235.34;5028088;28;20022;-59
2021/08/09 06:13:33;;;;;;;5.60;2.50;;;;;;;22.30;58.52;98229.91;5026285;28;20045;-59
2021/08/09 06:15:58;;;;;;;6.88;2.30;;;;;;;22.45;56.13;98229.59;5024147;28;20044;-60
2021/08/09 06:18:23;;;;;;;4.10;2.33;;;;;;;23.07;55.66;98225.09;5030710;28;20108;-60
2021/08/09 06:20:49;;;;;;;5.57;2.13;;;;;;;25.17;51.26;98227.84;5029247;28;20160;-59
2021/08/09 06:23:14;;;;;;;3.83;2.08;;;;;;;26.18;48.45;98232.97;5028227;28;20018;-63
2021/08/09 06:25:40;;;;;;;5.75;2.00;;;;;;;25.88;46.58;98227.03;5030715;28;20033;-59
2021/08/09 06:28:05;;;;;;;4.07;2.00;;;;;;;26.42;47.83;98228.78;5028138;28;20036;-60
2021/08/09 06:30:30;;;;;;;7.18;2.10;;;;;;;28.20;44.37;98238.50;5028338;28;20041;-61
2021/08/09 06:32:56;;;;;;;5.07;1.90;;;;;;;30.10;40.87;98233.94;5028605;28;20672;-61
2021/08/09 06:35:21;;;;;;;4.20;1.80;;;;;;;29.01;42.43;98242.81;5029600;28;20114;-61
2021/08/09 06:37:46;;;;;;;5.35;1.92;;;;;;;28.75;43.64;98242.28;5028867;28;20028;-61
2021/08/09 06:40:12;;;;;;;4.43;1.90;;;;;;;28.62;43.49;98234.78;5027816;28;20037;-61
2021/08/09 06:42:37;;;;;;;5.68;1.88;;;;;;;29.15;42.18;98245.81;5027737;28;20025;-61
2021/08/09 06:45:03;;;;;;;6.07;1.80;;;;;;;28.86;42.51;98247.25;5028363;28;20029;-62
2021/08/09 06:47:28;;;;;;;4.88;1.92;;;;;;;27.65;44.16;98242.66;5032499;28;20509;-62
2021/08/09 06:49:53;;;;;;;6.75;1.70;;;;;;;31.72;36.65;98238.59;5030737;28;20585;-61
2021/08/09 06:52:20;;;;;;;3.97;1.85;;;;;;;29.24;39.29;98235.88;5030242;28;20495;-62
2021/08/09 06:54:46;;;;;;;4.93;2.10;;;;;;;31.75;36.13;98232.81;5030406;28;20550;-61
2021/08/09 06:57:12;;;;;;;7.07;1.90;;;;;;;30.43;38.78;98237.16;5029501;28;20037;-61
2021/08/09 06:59:37;;;;;;;6.25;1.70;;;;;;;30.71;37.79;98244.59;5028760;28;20033;-63
2021/08/09 07:02:03;;;;;;;6.13;1.80;;;;;;;28.97;39.26;98244.19;5026730;28;20033;-59
2021/08/09 07:04:29;;;;;;;4.53;1.67;;;;;;;28.23;40.66;98239.00;5030588;28;20552;-61
2021/08/09 07:06:54;;;;;;;4.40;1.95;;;;;;;29.53;39.30;98235.19;5029518;28;20132;-61
2021/08/09 07:09:21;;;;;;;3.95;1.63;;;;;;;30.42;37.88;98238.19;5029783;28;20025;-60
2021/08/09 07:11:46;;;;;;;3.67;1.77;;;;;;;31.31;36.14;98238.13;5029987;28;20080;-61
2021/08/09 07:14:11;;;;;;;3.92;1.50;;;;;;;30.56;37.36;98248.13;5032315;28;20414;-61
2021/08/09 07:16:37;;;;;;;3.72;1.67;;;;;;;29.84;36.83;98243.22;5029672;28;20045;-62
2021/08/09 07:19:02;;;;;;;4.72;1.90;;;;;;;29.48;38.49;98245.63;5031390;28;20032;-62
2021/08/09 07:21:28;;;;;;;5.88;1.92;;;;;;;28.69;40.44;98241.09;5030760;28;20033;-61
2021/08/09 07:23:53;;;;;;;4.93;1.80;;;;;;;30.35;36.87;98238.09;5032820;28;20021;-63
2021/08/09 07:26:18;;;;;;;3.35;1.70;;;;;;;27.70;41.51;98245.69;5032302;28;20494;-62
2021/08/09 07:28:44;;;;;;;5.57;1.75;;;;;;;29.02;40.00;98249.03;5027050;28;20479;-61
2021/08/09 07:31:09;;;;;;;6.20;1.65;;;;;;;32.69;35.56;98246.03;5030564;28;20061;-62
2021/08/09 07:33:34;;;;;;;7.03;1.70;;;;;;;30.82;36.08;98244.13;5030394;28;20074;-61
2021/08/09 07:36:01;;;;;;;3.83;1.52;;;;;;;30.99;36.74;98249.34;5030552;28;20067;-60
2021/08/09 07:38:27;;;;;;;3.35;1.70;;;;;;;31.21;34.81;98247.53;5031373;28;20136;-62
2021/08/09 07:40:52;;;;;;;3.53;1.52;;;;;;;30.25;36.75;98247.41;5030071;28;20049;-60
2021/08/09 07:43:17;;;;;;;3.55;1.60;;;;;;;32.70;33.77;98242.31;5029016;28;20052;-61
2021/08/09 07:45:43;;;;;;;4.28;1.52;;;;;;;32.96;33.13;98240.78;5030486;28;20053;-62
2021/08/09 07:48:08;;;;;;;3.75;1.70;;;;;;;30.74;37.62;98236.97;5031350;28;20041;-62
2021/08/09 07:50:33;;;;;;;2.92;1.45;;;;;;;30.91;35.77;98229.56;5030369;28;20150;-61
2021/08/09 07:52:59;;;;;;;5.38;1.60;;;;;;;32.84;33.69;98229.69;5030666;28;20045;-61
2021/08/09 07:55:25;;;;;;;7.38;1.60;;;;;;;30.13;36.94;98229.03;5029630;28;20466;-60
2021/08/09 07:57:51;;;;;;;2.50;1.30;;;;;;;33.54;31.67;98226.84;5029120;28;20025;-63
2021/08/09 08:00:16;;;;;;;3.90;1.50;;;;;;;32.54;34.50;98231.81;5046571;28;20028;-59
2021/08/09 08:02:42;;;;;;;2.83;1.60;;;;;;;29.86;37.73;98224.22;5029531;28;20037;-60
2021/08/09 08:05:08;;;;;;;3.92;1.50;;;;;;;31.52;35.57;98223.03;5029311;28;20041;-62
2021/08/09 08:07:34;;;;;;;4.13;1.80;;;;;;;33.27;33.88;98228.66;5027862;28;20048;-60
2021/08/09 08:10:01;;;;;;;3.15;1.30;;;;;;;31.86;34.77;98225.03;5030367;28;20028;-60
2021/08/09 08:12:27;;;;;;;3.75;1.40;;;;;;;30.03;35.64;98228.44;5027793;28;20033;-61
2021/08/09 08:14:52;;;;;;;3.60;1.40;;;;;;;31.09;35.35;98231.03;5028975;28;20246;-60
2021/08/09 08:17:17;;;;;;;4.95;1.48;;;;;;;32.07;33.68;98231.47;5027967;28;20400;-62
2021/08/09 08:19:43;;;;;;;3.38;1.63;;;;;;;30.18;36.62;98226.63;5026538;28;20128;-63
2021/08/09 08:22:08;;;;;;;3.03;1.50;;;;;;;30.71;35.86;98228.44;5029154;28;20051;-60
2021/08/09 08:24:34;;;;;;;4.22;1.40;;;;;;;29.86;36.12;98227.75;5028183;28;20052;-60
2021/08/09 08:26:59;;;;;;;2.85;1.35;;;;;;;32.00;32.91;98226.00;5029202;28;20048;-60
2021/08/09 08:29:25;;;;;;;5.82;1.50;;;;;;;32.03;33.96;98225.63;5027315;28;20068;-63
2021/08/09 08:31:50;;;;;;;3.05;1.40;;;;;;;32.64;33.52;98237.69;5027025;28;20045;-61
2021/08/09 08:34:15;;;;;;;2.97;1.40;;;;;;;31.96;33.62;98234.66;5028803;28;20094;-60
2021/08/09 08:36:41;;;;;;;3.55;1.50;;;;;;;33.57;31.07;98232.69;5026060;28;20194;-61
2021/08/09 08:39:10;;;;;;;3.67;1.63;;;;;;;31.29;35.06;98229.41;5031759;28;20048;-61
2021/08/09 08:41:41;;;;;;;3.15;1.45;;;;;;;33.45;31.17;98228.91;5027758;28;20075;-60
2021/08/09 08:44:07;;;;;;;2.58;1.33;;;;;;;32.36;33.07;98240.41;5028791;28;20025;-62
2021/08/09 08:46:34;;;;;;;4.10;1.58;;;;;;;31.49;33.67;98239.63;5044750;28;20044;-60
2021/08/09 08:49:01;;;;;;;3.40;1.52;;;;;;;32.41;32.63;98243.34;5026255;28;20112;-62
2021/08/09 08:51:26;;;;;;;3.25;1.30;;;;;;;31.68;32.17;98244.34;5026938;28;20037;-61
2021/08/09 08:53:51;;;;;;;2.70;1.33;;;;;;;31.00;32.89;98230.31;5028900;28;20029;-60
2021/08/09 08:56:17;;;;;;;2.67;1.30;;;;;;;31.92;33.07;98242.31;5027342;28;20044;-61
2021/08/09 08:58:42;;;;;;;2.95;1.38;;;;;;;31.87;32.34;98236.66;5028027;28;20029;-61
2021/08/09 09:01:08;;;;;;;3.67;1.30;;;;;;;30.84;34.30;98233.16;5026595;28;20094;-60
2021/08/09 09:03:41;;;;;;;2.67;1.40;;;;;;;32.75;31.42;98242.53;5027116;28;20036;-62
2021/08/09 09:06:09;;;;;;;3.38;1.50;;;;;;;31.48;34.39;98237.94;5027980;28;20029;-62
2021/08/09 09:08:43;;;;;;;2.97;1.20;;;;;;;30.25;35.49;98240.16;5027141;28;20567;-60
2021/08/09 09:11:11;;;;;;;3.42;1.42;;;;;;;30.86;34.45;98240.06;5026526;28;20029;-61
2021/08/09 09:13:37;;;;;;;4.28;1.30;;;;;;;30.57;33.84;98235.50;5025022;28;20486;-60
2021/08/09 09:16:06;;;;;;;2.75;1.27;;;;;;;30.03;34.27;98244.56;5026757;28;20037;-66
2021/08/09 09:18:55;;;;;;;3.03;1.27;;;;;;;31.12;32.51;98242.28;5028658;28;20491;-62
2021/08/09 09:21:30;;;;;;;2.30;1.30;;;;;;;29.78;34.88;98242.09;5027311;28;20126;-60
2021/08/09 09:24:17;;;;;;;2.92;1.50;;;;;;;29.39;35.56;98248.38;5026589;28;20029;-60
2021/08/09 09:26:56;;;;;;;3.85;1.45;;;;;;;30.70;34.21;98242.94;5027663;28;20041;-61
2021/08/09 09:29:23;;;;;;;3.60;1.40;;;;;;;29.35;35.44;98241.69;5028955;28;20494;-61
2021/08/09 09:31:50;;;;;;;2.75;1.30;;;;;;;30.10;33.30;98232.06;5025657;28;20069;-61
2021/08/09 09:34:18;;;;;;;2.80;1.15;;;;;;;29.97;33.97;98231.84;5027965;28;20109;-61
2021/08/09 09:36:57;;;;;;;3.75;1.40;;;;;;;29.66;34.70;98242.66;5028868;28;20037;-60
2021/08/09 09:39:37;;;;;;;3.08;1.30;;;;;;;29.67;35.47;98234.41;5027932;28;20037;-60
2021/08/09 09:42:05;;;;;;;2.72;1.40;;;;;;;31.99;32.83;98235.09;5028030;28;20260;-62
2021/08/09 09:44:32;;;;;;;3.13;1.30;;;;;;;31.25;33.69;98233.53;5027082;28;20069;-60
2021/08/09 09:47:16;;;;;;;2.22;1.10;;;;;;;29.82;35.13;98233.69;5027791;28;20083;-62
2021/08/09 09:49:41;;;;;;;4.20;1.40;;;;;;;30.25;34.85;98223.19;5028241;28;20564;-60
2021/08/09 09:52:07;;;;;;;2.50;1.30;;;;;;;30.80;35.04;98230.00;5026743;28;20045;-60
2021/08/09 09:54:33;;;;;;;2.25;1.20;;;;;;;29.90;35.59;98223.66;5032628;28;20345;-61
2021/08/09 09:56:59;;;;;;;4.63;1.38;;;;;;;31.28;32.29;98225.06;5030846;28;20042;-61
2021/08/09 09:59:27;;;;;;;2.95;1.40;;;;;;;30.68;32.29;98221.59;5029862;28;20130;-62
2021/08/09 10:01:52;;;;;;;3.13;1.40;;;;;;;31.03;34.66;98224.56;5030456;28;20047;-60
2021/08/09 10:04:18;;;;;;;4.28;2.60;;;;;;;29.18;33.22;98223.97;5030617;28;20025;-59
2021/08/09 10:06:45;;;;;;;2.35;1.27;;;;;;;31.08;31.22;98226.66;5032338;28;20045;-63
2021/08/09 10:09:13;;;;;;;3.47;1.20;;;;;;;31.36;31.17;98225.94;5029984;28;20029;-59
2021/08/09 10:11:42;;;;;;;3.10;1.35;;;;;;;29.70;33.09;98217.94;5031841;28;20802;-60
2021/08/09 10:14:09;;;;;;;3.42;1.40;;;;;;;30.87;31.97;98214.78;5031654;28;20041;-60
2021/08/09 10:16:37;;;;;;;2.70;1.20;;;;;;;29.05;32.77;98218.31;5030518;28;20525;-60
2021/08/09 10:19:03;;;;;;;2.33;1.20;;;;;;;30.99;31.70;98219.72;5031875;28;20033;-60
2021/08/09 10:21:33;;;;;;;5.15;1.35;;;;;;;29.76;31.70;98209.19;5031876;28;20033;-60
2021/08/09 10:23:59;;;;;;;2.70;1.38;;;;;;;29.28;32.71;98213.00;5030237;28;20703;-63
2021/08/09 10:26:30;;;;;;;3.33;1.30;;;;;;;30.70;32.08;98207.94;5029255;28;20501;-60
2021/08/09 10:28:55;;;;;;;2.93;1.33;;;;;;;30.31;33.32;98214.38;5030558;28;20110;-60
2021/08/09 10:31:24;;;;;;;2.60;1.20;;;;;;;30.18;32.86;98220.38;5031395;28;20115;-60
2021/08/09 10:33:51;;;;;;;3.03;1.25;;;;;;;29.89;33.64;98227.38;5030561;28;20033;-61
2021/08/09 10:36:21;;;;;;;2.88;1.30;;;;;;;29.78;32.91;98230.50;5030734;28;20048;-60
2021/08/09 10:38:47;;;;;;;3.28;1.40;;;;;;;29.25;33.11;98224.94;5031321;28;20172;-60
2021/08/09 10:41:15;;;;;;;3.13;1.40;;;;;;;28.78;33.16;98229.34;5030207;28;20033;-61
2021/08/09 10:44:05;;;;;;;2.85;1.40;;;;;;;29.24;34.19;98212.53;5030554;28;20036;-60
2021/08/09 10:46:41;;;;;;;2.75;1.30;;;;;;;30.50;31.55;98211.19;5029419;28;20040;-60
2021/08/09 10:49:08;;;;;;;3.13;1.30;;;;;;;30.49;32.04;98201.47;5031212;28;20769;-63
2021/08/09 10:51:51;;;;;;;3.10;1.20;;;;;;;29.94;33.47;98208.00;5030712;28;20037;-61
2021/08/09 10:54:31;;;;;;;2.50;1.30;;;;;;;30.21;33.23;98208.44;5033236;28;20029;-59
2021/08/09 10:57:03;;;;;;;2.30;1.27;;;;;;;30.59;34.63;98211.94;5030069;28;20072;-60
2021/08/09 10:59:37;;;;;;;2.08;1.02;;;;;;;30.05;35.20;98209.44;5028742;28;20021;-60
2021/08/09 11:02:04;;;;;;;2.90;1.35;;;;;;;31.25;34.75;98209.25;5031115;28;20045;-60
2021/08/09 11:04:29;;;;;;;2.63;1.20;;;;;;;31.22;33.48;98206.94;5028553;28;20024;-61
2021/08/09 11:06:55;;;;;;;3.20;1.20;;;;;;;31.22;33.43;98204.25;5028681;28;20375;-61
2021/08/09 11:09:29;;;;;;;2.78;1.25;;;;;;;29.58;35.34;98208.63;5028442;28;20112;-60
2021/08/09 11:12:13;;;;;;;4.55;1.40;;;;;;;28.29;33.01;98202.63;5028549;28;20040;-62
2021/08/09 11:15:01;;;;;;;5.15;1.40;;;;;;;29.73;33.65;98201.44;5027876;28;20238;-62
2021/08/09 11:17:30;;;;;;;2.85;1.30;;;;;;;30.16;33.82;98201.75;5029796;28;20029;-61
2021/08/09 11:20:16;;;;;;;2.38;1.20;;;;;;;30.20;33.95;98201.38;5031436;28;20026;-61
2021/08/09 11:22:43;;;;;;;2.90;1.20;;;;;;;29.33;33.86;98195.34;5028768;28;20410;-61
2021/08/09 11:25:24;;;;;;;2.35;1.40;;;;;;;28.90;34.30;98194.88;5031867;28;20037;-60
2021/08/09 11:28:09;;;;;;;2.70;1.43;;;;;;;29.07;33.71;98184.06;5028859;28;20761;-60
2021/08/09 11:30:52;;;;;;;2.50;1.20;;;;;;;29.91;35.29;98176.94;5030316;28;20057;-60
2021/08/09 11:33:33;;;;;;;2.17;1.30;;;;;;;30.61;31.59;98174.91;5031608;28;20025;-60
2021/08/09 11:36:02;;;;;;;4.55;1.40;;;;;;;29.54;32.15;98180.44;5029186;28;20034;-62
2021/08/09 11:38:29;;;;;;;2.45;1.30;;;;;;;28.42;33.49;98180.63;5030230;28;20018;-62